createdAt,value
2023-03-13T00:00:24.865Z,6.20
2023-03-13T00:02:55.489Z,7.90
2023-03-13T00:05:26.152Z,8.80
2023-03-13T00:07:56.926Z,9.60
2023-03-13T00:10:27.572Z,8.80
2023-03-13T00:12:58.235Z,8.10
2023-03-13T00:15:28.893Z,8.20
2023-03-13T00:17:59.594Z,8.70
2023-03-13T00:20:30.461Z,13.30
2023-03-13T00:23:01.130Z,9.00
2023-03-13T00:25:31.892Z,9.60
2023-03-13T00:28:02.590Z,12.80
2023-03-13T00:30:33.419Z,8.00
2023-03-13T00:33:04.342Z,10.00
2023-03-13T00:35:35.171Z,12.60
2023-03-13T00:38:06.034Z,10.70
2023-03-13T00:40:37.456Z,9.50
2023-03-13T00:43:08.153Z,7.50
2023-03-13T00:45:38.922Z,7.20
2023-03-13T00:48:09.665Z,8.00
2023-03-13T00:50:40.411Z,7.20
2023-03-13T00:53:11.025Z,11.10
2023-03-13T00:55:52.309Z,10.10
2023-03-13T00:58:22.942Z,9.80
2023-03-13T01:00:53.747Z,8.00
2023-03-13T01:03:26.805Z,11.50
2023-03-13T01:06:02.601Z,7.60
2023-03-13T01:08:33.498Z,9.50
2023-03-13T01:11:07.195Z,12.80
2023-03-13T01:13:38.489Z,11.90
2023-03-13T01:16:11.316Z,10.50
2023-03-13T01:21:13.838Z,8.90
2023-03-13T01:23:45.560Z,12.00
2023-03-13T01:26:16.809Z,9.00
2023-03-13T01:28:48.181Z,7.40
2023-03-13T01:31:22.161Z,10.00
2023-03-13T01:36:22.736Z,5.70
2023-03-13T01:38:55.676Z,5.60
2023-03-13T01:41:27.633Z,9.70
2023-03-13T01:43:59.455Z,9.60
2023-03-13T01:46:36.956Z,11.10
2023-03-13T01:49:29.144Z,12.10
2023-03-13T01:52:28.660Z,10.70
2023-03-13T01:55:11.516Z,9.00
2023-03-13T01:57:47.429Z,11.90
2023-03-13T02:00:23.754Z,12.50
2023-03-13T02:02:58.226Z,7.20
2023-03-13T02:05:32.437Z,13.40
2023-03-13T02:08:07.798Z,8.50
2023-03-13T02:10:45.301Z,9.00
2023-03-13T02:13:18.508Z,9.40
2023-03-13T02:15:49.985Z,7.40
2023-03-13T02:18:20.938Z,11.90
2023-03-13T02:20:57.922Z,11.10
2023-03-13T02:23:34.941Z,9.60
2023-03-13T02:26:06.253Z,13.00
2023-03-13T02:28:40.202Z,10.90
2023-03-13T02:31:14.470Z,14.60
2023-03-13T02:33:45.824Z,8.10
2023-03-13T02:36:20.135Z,11.80
2023-03-13T02:38:56.297Z,9.00
2023-03-13T02:41:29.415Z,12.10
2023-03-13T02:44:00.592Z,10.60
2023-03-13T02:46:32.448Z,14.30
2023-03-13T02:49:22.875Z,12.10
2023-03-13T02:51:56.427Z,8.90
2023-03-13T02:54:33.602Z,9.70
2023-03-13T02:57:06.411Z,7.20
2023-03-13T03:02:07.122Z,15.00
2023-03-13T03:04:37.795Z,9.90
2023-03-13T03:07:08.521Z,11.70
2023-03-13T03:09:39.457Z,10.00
2023-03-13T03:12:14.164Z,7.50
2023-03-13T03:14:44.839Z,8.80
2023-03-13T03:17:16.229Z,9.10
2023-03-13T03:19:47.051Z,12.90
2023-03-13T03:22:17.865Z,10.70
2023-03-13T03:24:48.521Z,9.60
2023-03-13T03:27:19.254Z,12.60
2023-03-13T03:29:53.623Z,10.80
2023-03-13T03:32:25.031Z,12.80
2023-03-13T03:34:55.808Z,8.30
2023-03-13T03:37:27.235Z,9.30
2023-03-13T03:39:57.874Z,13.20
2023-03-13T03:42:29.122Z,9.40
2023-03-13T03:44:59.709Z,10.20
2023-03-13T03:47:30.687Z,13.30
2023-03-13T03:50:03.986Z,9.90
2023-03-13T03:52:38.377Z,12.80
2023-03-13T03:55:10.515Z,9.30
2023-03-13T03:57:41.465Z,13.90
2023-03-13T04:02:48.152Z,7.60
2023-03-13T04:05:19.571Z,6.50
2023-03-13T04:07:50.306Z,12.70
2023-03-13T04:10:21.395Z,10.80
2023-03-13T04:12:52.101Z,10.50
2023-03-13T04:15:22.822Z,8.90
2023-03-13T04:17:53.514Z,9.40
2023-03-13T04:20:26.093Z,9.00
2023-03-13T04:22:56.988Z,13.60
2023-03-13T04:25:28.072Z,12.20
2023-03-13T04:28:01.166Z,8.50
2023-03-13T04:30:39.375Z,8.30
2023-03-13T04:33:30.141Z,9.20
2023-03-13T04:36:13.560Z,10.50
2023-03-13T04:39:11.294Z,11.40
2023-03-13T04:44:58.107Z,10.60
2023-03-13T04:47:44.566Z,9.90
2023-03-13T04:53:30.685Z,7.20
2023-03-13T04:56:41.144Z,9.00
2023-03-13T04:59:39.556Z,10.10
2023-03-13T05:02:25.223Z,10.80
2023-03-13T05:05:05.537Z,3.50
2023-03-13T05:08:15.007Z,8.70
2023-03-13T05:11:06.514Z,9.50
2023-03-13T05:14:00.053Z,9.60
2023-03-13T05:16:48.640Z,8.90
2023-03-13T05:19:38.177Z,8.40
2023-03-13T05:22:32.270Z,14.50
2023-03-13T05:25:21.324Z,15.30
2023-03-13T05:30:53.535Z,13.50
2023-03-13T05:33:50.364Z,14.30
2023-03-13T05:36:33.265Z,11.40
2023-03-13T05:39:24.441Z,10.50
2023-03-13T05:42:15.377Z,15.80
2023-03-13T05:44:55.594Z,9.90
2023-03-13T05:47:52.614Z,14.00
2023-03-13T05:50:49.504Z,8.90
2023-03-13T05:53:46.494Z,13.60
2023-03-13T05:56:31.225Z,12.20
2023-03-13T05:59:18.451Z,10.80
2023-03-13T06:04:46.476Z,10.60
2023-03-13T06:07:17.759Z,10.00
2023-03-13T06:09:48.498Z,12.20
2023-03-13T06:12:19.198Z,10.90
2023-03-13T06:14:51.006Z,8.60
2023-03-13T06:17:29.359Z,9.40
2023-03-13T06:19:59.949Z,11.70
2023-03-13T06:22:30.889Z,10.80
2023-03-13T06:25:01.541Z,12.60
2023-03-13T06:27:32.199Z,7.60
2023-03-13T06:30:02.989Z,8.70
2023-03-13T06:32:34.574Z,7.60
2023-03-13T06:35:06.090Z,8.50
2023-03-13T06:37:36.673Z,6.90
2023-03-13T06:40:09.341Z,7.80
2023-03-13T06:42:39.935Z,8.20
2023-03-13T06:45:12.697Z,10.30
2023-03-13T06:47:43.469Z,9.40
2023-03-13T06:50:14.782Z,9.00
2023-03-13T06:52:45.456Z,9.30
2023-03-13T06:55:16.335Z,9.80
2023-03-13T06:57:50.458Z,11.10
2023-03-13T07:00:23.340Z,9.10
2023-03-13T07:02:59.081Z,9.10
2023-03-13T07:05:33.809Z,9.40
2023-03-13T07:08:04.448Z,13.60
2023-03-13T07:10:35.368Z,5.30
2023-03-13T07:13:06.016Z,4.30
2023-03-13T07:15:36.703Z,6.70
2023-03-13T07:18:08.720Z,8.20
2023-03-13T07:20:39.477Z,7.90
2023-03-13T07:23:10.283Z,7.80
2023-03-13T07:25:40.926Z,4.00
2023-03-13T07:28:11.696Z,8.30
2023-03-13T07:30:42.429Z,9.40
2023-03-13T07:33:13.100Z,8.60
2023-03-13T07:35:48.259Z,8.10
2023-03-13T07:38:19.383Z,8.00
2023-03-13T07:40:55.164Z,10.00
2023-03-13T07:43:26.949Z,7.80
2023-03-13T07:45:59.862Z,8.00
2023-03-13T07:48:32.788Z,8.20
2023-03-13T07:51:04.530Z,9.80
2023-03-13T07:53:36.770Z,6.00
2023-03-13T07:56:09.455Z,6.70
2023-03-13T07:58:41.846Z,6.70
2023-03-13T08:01:15.446Z,8.30
2023-03-13T08:03:49.209Z,8.40
2023-03-13T08:06:23.312Z,7.10
2023-03-13T08:08:54.669Z,7.30
2023-03-13T08:11:26.887Z,10.40
2023-03-13T08:13:58.661Z,9.40
2023-03-13T08:16:31.098Z,6.80
2023-03-13T08:19:04.597Z,9.20
2023-03-13T08:21:36.952Z,5.60
2023-03-13T08:24:10.670Z,7.50
2023-03-13T08:26:42.887Z,7.80
2023-03-13T08:29:15.253Z,6.00
2023-03-13T08:31:49.266Z,7.40
2023-03-13T08:34:20.694Z,7.00
2023-03-13T08:36:52.899Z,6.70
2023-03-13T08:39:23.894Z,6.90
2023-03-13T08:41:54.520Z,6.50
2023-03-13T08:44:25.245Z,7.90
2023-03-13T08:46:56.932Z,7.10
2023-03-13T08:49:27.697Z,9.20
2023-03-13T08:51:58.309Z,3.60
2023-03-13T08:54:29.128Z,4.40
2023-03-13T08:57:00.341Z,6.30
2023-03-13T08:59:31.565Z,5.40
2023-03-13T09:02:03.113Z,2.80
2023-03-13T09:04:33.836Z,2.80
2023-03-13T09:07:04.613Z,4.80
2023-03-13T09:09:35.483Z,8.90
2023-03-13T09:12:06.944Z,8.70
2023-03-13T09:14:37.692Z,5.10
2023-03-13T09:17:08.913Z,8.20
2023-03-13T09:19:47.888Z,9.10
2023-03-13T09:22:28.595Z,4.50
2023-03-13T09:24:59.383Z,5.60
2023-03-13T09:27:30.008Z,6.40
2023-03-13T09:30:00.627Z,5.00
2023-03-13T09:32:31.369Z,2.90
2023-03-13T09:35:02.000Z,4.70
2023-03-13T09:37:32.646Z,3.70
2023-03-13T09:40:03.531Z,6.40
2023-03-13T09:42:43.998Z,7.60
2023-03-13T09:45:18.997Z,4.40
2023-03-13T09:47:53.719Z,5.40
2023-03-13T09:50:28.701Z,4.90
2023-03-13T09:53:05.106Z,3.50
2023-03-13T09:55:38.528Z,3.30
2023-03-13T09:58:17.910Z,4.60
2023-03-13T10:00:53.795Z,5.20
2023-03-13T10:03:28.648Z,5.60
2023-03-13T10:06:02.250Z,4.20
2023-03-13T10:08:35.591Z,5.60
2023-03-13T10:11:08.963Z,4.20
2023-03-13T10:13:46.166Z,2.70
2023-03-13T10:16:21.522Z,5.80
2023-03-13T10:18:57.112Z,7.00
2023-03-13T10:21:33.837Z,3.00
2023-03-13T10:24:15.703Z,3.50
2023-03-13T10:26:46.388Z,2.70
2023-03-13T10:29:24.421Z,3.40
2023-03-13T10:31:59.618Z,4.00
2023-03-13T10:34:45.453Z,2.60
2023-03-13T10:37:18.261Z,2.60
2023-03-13T10:39:49.049Z,2.10
2023-03-13T10:42:26.559Z,1.40
2023-03-13T10:45:02.070Z,1.60
2023-03-13T10:47:36.325Z,0.70
2023-03-13T10:50:08.332Z,2.20
2023-03-13T10:52:46.326Z,1.60
2023-03-13T10:55:20.599Z,2.20
2023-03-13T10:58:00.465Z,2.10
2023-03-13T11:00:38.734Z,2.60
2023-03-13T11:03:17.868Z,2.20
2023-03-13T11:05:58.187Z,0.90
2023-03-13T11:08:35.018Z,2.60
2023-03-13T11:11:16.507Z,1.40
2023-03-13T11:13:47.563Z,1.60
2023-03-13T11:16:23.164Z,2.80
2023-03-13T11:19:16.882Z,2.00
2023-03-13T11:21:59.776Z,1.50
2023-03-13T11:24:40.202Z,1.80
2023-03-13T11:27:23.190Z,3.00
2023-03-13T11:30:03.720Z,1.00
2023-03-13T11:32:43.287Z,1.30
2023-03-13T11:35:32.790Z,1.40
2023-03-13T11:38:08.579Z,1.90
2023-03-13T11:40:46.782Z,2.40
2023-03-13T11:43:42.097Z,0.90
2023-03-13T11:46:23.934Z,0.60
2023-03-13T11:49:17.462Z,0.70
2023-03-13T11:52:02.961Z,0.90
2023-03-13T11:54:57.470Z,1.40
2023-03-13T11:57:32.018Z,1.10
2023-03-13T12:00:21.577Z,1.30
2023-03-13T12:02:56.490Z,1.50
2023-03-13T12:05:29.662Z,0.50
2023-03-13T12:08:04.262Z,1.20
2023-03-13T12:10:40.745Z,1.60
2023-03-13T12:13:17.872Z,1.50
2023-03-13T12:15:53.599Z,0.80
2023-03-13T12:18:31.695Z,1.70
2023-03-13T12:21:08.379Z,3.90
2023-03-13T12:23:47.852Z,1.50
2023-03-13T12:26:21.272Z,2.00
2023-03-13T12:29:02.094Z,3.30
2023-03-13T12:31:37.170Z,2.50
2023-03-13T12:34:15.249Z,1.30
2023-03-13T12:36:51.009Z,0.70
2023-03-13T12:39:35.872Z,0.80
2023-03-13T12:42:18.523Z,1.60
2023-03-13T12:44:49.604Z,1.40
2023-03-13T12:47:28.083Z,1.90
2023-03-13T12:50:15.828Z,0.60
2023-03-13T12:53:19.129Z,1.00
2023-03-13T12:56:18.952Z,0.60
2023-03-13T12:58:53.259Z,1.30
2023-03-13T13:01:33.292Z,1.30
2023-03-13T13:04:08.905Z,1.60
2023-03-13T13:06:59.469Z,1.50
2023-03-13T13:12:04.133Z,0.70
2023-03-13T13:14:59.941Z,0.80
2023-03-13T13:17:46.861Z,0.40
2023-03-13T13:20:37.706Z,2.60
2023-03-13T13:23:34.895Z,2.10
2023-03-13T13:26:49.431Z,0.60
2023-03-13T13:29:57.266Z,1.20
2023-03-13T13:32:43.421Z,2.80
2023-03-13T13:35:34.612Z,0.80
2023-03-13T13:38:36.965Z,0.90
2023-03-13T13:41:28.312Z,0.60
2023-03-13T13:44:24.378Z,2.70
2023-03-13T13:46:56.605Z,1.80
2023-03-13T13:49:32.697Z,0.70
2023-03-13T13:52:29.257Z,0.70
2023-03-13T13:55:00.902Z,0.90
2023-03-13T13:57:35.930Z,0.80
2023-03-13T14:00:22.236Z,1.50
2023-03-13T14:02:55.383Z,2.30
2023-03-13T14:05:27.963Z,1.20
2023-03-13T14:08:06.166Z,1.90
2023-03-13T14:10:42.752Z,1.60
2023-03-13T14:13:21.239Z,1.20
2023-03-13T14:18:28.222Z,1.00
2023-03-13T14:21:02.018Z,1.70
2023-03-13T14:23:40.140Z,0.70
2023-03-13T14:26:17.863Z,1.20
2023-03-13T14:28:50.889Z,3.10
2023-03-13T14:31:30.556Z,1.20
2023-03-13T14:34:04.117Z,1.10
2023-03-13T14:36:48.693Z,1.60
2023-03-13T14:39:23.354Z,1.10
2023-03-13T14:41:53.946Z,0.50
2023-03-13T14:44:30.030Z,2.00
2023-03-13T14:47:02.201Z,2.70
2023-03-13T14:49:33.541Z,1.70
2023-03-13T14:52:06.618Z,2.60
2023-03-13T14:54:52.939Z,4.20
2023-03-13T14:57:27.429Z,1.30
2023-03-13T15:00:19.788Z,1.30
2023-03-13T15:02:50.534Z,1.10
2023-03-13T15:05:35.231Z,0.90
2023-03-13T15:08:14.724Z,1.00
2023-03-13T15:10:46.552Z,2.30
2023-03-13T15:13:26.622Z,2.80
2023-03-13T15:15:57.600Z,1.10
2023-03-13T15:18:30.091Z,1.30
2023-03-13T15:21:18.029Z,1.80
2023-03-13T15:23:52.187Z,1.50
2023-03-13T15:26:24.136Z,1.20
2023-03-13T15:28:54.882Z,2.00
2023-03-13T15:31:28.765Z,0.90
2023-03-13T15:34:02.057Z,2.80
2023-03-13T15:36:34.186Z,1.70
2023-03-13T15:39:05.501Z,1.00
2023-03-13T15:41:36.222Z,0.90
2023-03-13T15:44:07.077Z,1.70
2023-03-13T15:46:38.137Z,1.50
2023-03-13T15:49:12.983Z,1.10
2023-03-13T15:51:43.786Z,1.30
2023-03-13T15:54:14.540Z,0.80
2023-03-13T15:56:45.451Z,0.60
2023-03-13T15:59:17.327Z,2.20
2023-03-13T16:01:48.582Z,0.60
2023-03-13T16:04:19.361Z,2.10
2023-03-13T16:06:50.470Z,0.80
2023-03-13T16:09:21.183Z,2.00
2023-03-13T16:11:51.890Z,1.70
2023-03-13T16:14:22.530Z,0.80
2023-03-13T16:16:53.976Z,2.60
2023-03-13T16:19:24.662Z,1.00
2023-03-13T16:21:55.278Z,0.80
2023-03-13T16:24:26.042Z,1.00
2023-03-13T16:26:56.838Z,1.10
2023-03-13T16:29:27.576Z,0.90
2023-03-13T16:31:58.229Z,1.00
2023-03-13T16:34:28.916Z,1.30
2023-03-13T16:36:59.834Z,0.60
2023-03-13T16:39:30.678Z,1.20
2023-03-13T16:42:01.487Z,1.50
2023-03-13T16:44:32.210Z,1.90
2023-03-13T16:47:06.717Z,2.30
2023-03-13T16:49:37.529Z,1.60
2023-03-13T16:52:11.245Z,2.70
2023-03-13T16:54:41.896Z,3.70
2023-03-13T16:57:14.389Z,5.90
2023-03-13T17:02:18.079Z,2.00
2023-03-13T17:04:49.466Z,3.00
2023-03-13T17:07:26.551Z,2.70
2023-03-13T17:09:57.154Z,4.30
2023-03-13T17:12:27.878Z,3.10
2023-03-13T17:14:58.601Z,3.60
2023-03-13T17:17:30.458Z,5.50
2023-03-13T17:20:01.127Z,6.30
2023-03-13T17:22:31.952Z,8.80
2023-03-13T17:25:02.514Z,7.20
2023-03-13T17:27:33.552Z,6.40
2023-03-13T17:30:04.972Z,11.30
2023-03-13T17:32:36.331Z,6.70
2023-03-13T17:35:08.536Z,4.70
2023-03-13T17:37:39.412Z,7.60
2023-03-13T17:40:18.818Z,5.40
2023-03-13T17:42:50.110Z,7.70
2023-03-13T17:45:21.974Z,5.50
2023-03-13T17:47:54.870Z,4.80
2023-03-13T17:50:29.454Z,4.00
2023-03-13T17:53:00.206Z,4.80
2023-03-13T17:55:31.217Z,8.20
2023-03-13T17:58:02.436Z,2.80
2023-03-13T18:00:36.128Z,2.70
2023-03-13T18:03:08.088Z,5.00
2023-03-13T18:05:42.458Z,4.20
2023-03-13T18:08:13.907Z,3.10
2023-03-13T18:10:44.646Z,3.60
2023-03-13T18:13:15.420Z,4.20
2023-03-13T18:15:50.466Z,2.80
2023-03-13T18:18:21.344Z,3.30
2023-03-13T18:20:52.075Z,2.30
2023-03-13T18:23:23.449Z,4.00
2023-03-13T18:25:55.215Z,3.70
2023-03-13T18:28:26.317Z,3.20
2023-03-13T18:30:58.511Z,3.30
2023-03-13T18:33:30.237Z,5.60
2023-03-13T18:36:01.217Z,6.10
2023-03-13T18:38:32.669Z,4.50
2023-03-13T18:41:03.585Z,3.70
2023-03-13T18:43:34.563Z,2.90
2023-03-13T18:46:05.940Z,2.40
2023-03-13T18:48:36.941Z,6.00
2023-03-13T18:51:08.126Z,4.30
2023-03-13T18:53:39.027Z,3.80
2023-03-13T18:56:18.422Z,3.60
2023-03-13T18:58:53.957Z,4.70
2023-03-13T19:01:26.518Z,4.00
2023-03-13T19:04:00.028Z,2.80
2023-03-13T19:06:33.206Z,4.60
2023-03-13T19:09:26.531Z,4.80
2023-03-13T19:11:59.476Z,3.90
2023-03-13T19:14:30.168Z,3.40
2023-03-13T19:17:00.821Z,3.40
2023-03-13T19:19:32.269Z,3.40
2023-03-13T19:22:02.964Z,4.40
2023-03-13T19:24:33.868Z,6.80
2023-03-13T19:27:06.117Z,3.80
2023-03-13T19:29:36.957Z,4.30
2023-03-13T19:32:08.313Z,6.20
2023-03-13T19:34:39.389Z,4.50
2023-03-13T19:37:12.686Z,4.70
2023-03-13T19:39:44.165Z,3.30
2023-03-13T19:42:15.203Z,5.60
2023-03-13T19:44:46.158Z,5.00
2023-03-13T19:47:18.191Z,4.00
2023-03-13T19:49:51.149Z,6.50
2023-03-13T19:52:22.059Z,3.30
2023-03-13T19:54:54.447Z,4.60
2023-03-13T19:57:25.502Z,3.50
2023-03-13T19:59:57.585Z,4.00
2023-03-13T20:02:28.404Z,4.50
2023-03-13T20:04:59.312Z,3.60
2023-03-13T20:07:30.041Z,4.80
2023-03-13T20:10:00.829Z,3.10
2023-03-13T20:12:31.547Z,2.60
2023-03-13T20:15:02.561Z,3.30
2023-03-13T20:17:33.412Z,3.60
2023-03-13T20:20:05.913Z,7.40
2023-03-13T20:22:36.637Z,3.00
2023-03-13T20:25:08.778Z,2.10
2023-03-13T20:27:40.042Z,3.00
2023-03-13T20:30:13.297Z,1.10
2023-03-13T20:32:58.501Z,1.10
2023-03-13T20:35:30.566Z,1.10
2023-03-13T20:38:05.009Z,1.20
2023-03-13T20:40:36.931Z,1.70
2023-03-13T20:43:07.953Z,0.70
2023-03-13T20:45:38.861Z,1.50
2023-03-13T20:48:10.203Z,1.20
2023-03-13T20:50:41.326Z,1.00
2023-03-13T20:53:14.621Z,1.50
2023-03-13T20:55:45.524Z,1.00
2023-03-13T20:58:17.133Z,1.90
2023-03-13T21:00:48.226Z,3.10
2023-03-13T21:03:19.623Z,5.50
2023-03-13T21:05:50.434Z,1.70
2023-03-13T21:08:21.898Z,0.90
2023-03-13T21:10:52.879Z,1.20
2023-03-13T21:13:23.717Z,1.30
2023-03-13T21:16:02.786Z,1.00
2023-03-13T21:18:33.601Z,1.80
2023-03-13T21:21:08.039Z,2.30
2023-03-13T21:23:39.850Z,2.20
2023-03-13T21:26:10.744Z,1.80
2023-03-13T21:28:42.110Z,1.50
2023-03-13T21:31:15.458Z,1.20
2023-03-13T21:33:47.549Z,1.10
2023-03-13T21:36:20.795Z,1.00
2023-03-13T21:38:52.155Z,0.80
2023-03-13T21:41:23.867Z,0.90
2023-03-13T21:44:00.686Z,0.70
2023-03-13T21:46:34.263Z,1.20
2023-03-13T21:49:05.257Z,0.80
2023-03-13T21:51:35.956Z,1.10
2023-03-13T21:54:07.209Z,0.70
2023-03-13T21:56:37.808Z,1.50
2023-03-13T21:59:08.890Z,0.90
2023-03-13T22:01:40.806Z,1.70
2023-03-13T22:04:11.847Z,1.50
2023-03-13T22:06:42.797Z,0.70
2023-03-13T22:09:13.827Z,1.30
2023-03-13T22:11:44.488Z,0.80
2023-03-13T22:14:15.374Z,1.50
2023-03-13T22:16:46.338Z,1.20
2023-03-13T22:19:17.620Z,1.00
2023-03-13T22:21:48.340Z,1.70
2023-03-13T22:24:18.925Z,1.20
2023-03-13T22:26:49.943Z,0.80
2023-03-13T22:29:20.546Z,4.60
2023-03-13T22:31:51.232Z,1.40
2023-03-13T22:34:22.135Z,0.80
2023-03-13T22:36:52.808Z,1.40
2023-03-13T22:39:23.560Z,2.60
2023-03-13T22:41:54.238Z,1.30
2023-03-13T22:44:24.888Z,1.00
2023-03-13T22:46:55.684Z,1.00
2023-03-13T22:49:26.539Z,1.30
2023-03-13T22:51:59.003Z,1.60
2023-03-13T22:54:29.900Z,1.60
2023-03-13T22:57:00.484Z,1.70
2023-03-13T22:59:31.126Z,3.40
2023-03-13T23:02:01.950Z,2.20
2023-03-13T23:04:32.559Z,2.50
2023-03-13T23:07:03.273Z,1.90
2023-03-13T23:09:34.004Z,1.90
2023-03-13T23:12:04.987Z,2.40
2023-03-13T23:14:35.837Z,1.70
2023-03-13T23:17:06.692Z,2.60
2023-03-13T23:19:37.785Z,2.10
2023-03-13T23:22:08.676Z,1.00
2023-03-13T23:24:39.512Z,1.80
2023-03-13T23:27:10.213Z,2.60
2023-03-13T23:29:40.927Z,2.40
2023-03-13T23:32:11.558Z,0.90
2023-03-13T23:34:42.193Z,1.20
2023-03-13T23:37:12.822Z,1.20
2023-03-13T23:39:43.750Z,2.10
2023-03-13T23:42:14.351Z,1.80
2023-03-13T23:44:45.004Z,1.50
2023-03-13T23:47:15.757Z,0.90
2023-03-13T23:49:46.448Z,0.90
2023-03-13T23:52:17.134Z,1.10
2023-03-13T23:54:47.779Z,0.60
2023-03-13T23:57:18.512Z,0.90
2023-03-13T23:59:49.672Z,0.80
